createdAt,value
2022-11-06T00:01:08.467Z,2.90
2022-11-06T00:03:36.406Z,3.70
2022-11-06T00:06:28.473Z,3.85
2022-11-06T00:08:55.645Z,3.05
2022-11-06T00:11:22.460Z,3.15
2022-11-06T00:13:49.532Z,2.97
2022-11-06T00:16:16.094Z,3.13
2022-11-06T00:18:42.703Z,2.35
2022-11-06T00:21:24.052Z,2.85
2022-11-06T00:23:51.488Z,2.35
2022-11-06T00:26:21.221Z,2.50
2022-11-06T00:28:49.011Z,3.55
2022-11-06T00:31:19.015Z,3.03
2022-11-06T00:33:46.122Z,2.42
2022-11-06T00:36:16.128Z,3.30
2022-11-06T00:38:43.021Z,2.38
2022-11-06T00:41:11.650Z,2.80
2022-11-06T00:43:38.404Z,2.85
2022-11-06T00:46:12.709Z,2.30
2022-11-06T00:48:40.666Z,3.47
2022-11-06T00:51:19.284Z,3.55
2022-11-06T00:53:46.181Z,2.63
2022-11-06T00:56:17.901Z,2.88
2022-11-06T00:58:46.009Z,2.95
2022-11-06T01:01:18.929Z,2.38
2022-11-06T01:03:47.475Z,3.15
2022-11-06T01:06:17.446Z,2.30
2022-11-06T01:08:44.305Z,2.10
2022-11-06T01:11:14.900Z,2.50
2022-11-06T01:13:41.905Z,2.20
2022-11-06T01:16:11.661Z,2.45
2022-11-06T01:18:39.346Z,2.78
2022-11-06T01:21:12.069Z,1.63
2022-11-06T01:23:38.769Z,2.58
2022-11-06T01:26:07.860Z,2.63
2022-11-06T01:28:35.403Z,2.53
2022-11-06T01:31:03.737Z,2.67
2022-11-06T01:33:30.514Z,2.50
2022-11-06T01:35:57.207Z,3.03
2022-11-06T01:38:23.757Z,2.80
2022-11-06T01:40:50.361Z,3.38
2022-11-06T01:43:56.665Z,3.00
2022-11-06T01:46:28.357Z,3.10
2022-11-06T01:48:59.953Z,2.58
2022-11-06T01:51:29.501Z,2.78
2022-11-06T01:53:56.674Z,3.38
2022-11-06T01:56:24.286Z,2.72
2022-11-06T01:58:53.487Z,3.00
2022-11-06T02:01:20.240Z,4.78
2022-11-06T02:04:24.317Z,3.80
2022-11-06T02:06:51.871Z,3.10
2022-11-06T02:09:19.488Z,2.90
2022-11-06T02:12:05.882Z,3.92
2022-11-06T02:14:45.597Z,3.67
2022-11-06T02:17:48.796Z,3.40
2022-11-06T02:20:32.512Z,2.95
2022-11-06T02:23:17.667Z,3.10
2022-11-06T02:25:44.092Z,3.33
2022-11-06T02:28:28.420Z,3.95
2022-11-06T02:30:58.168Z,4.07
2022-11-06T02:33:36.699Z,3.80
2022-11-06T02:36:11.788Z,3.25
2022-11-06T02:38:51.206Z,3.58
2022-11-06T02:41:42.621Z,4.07
2022-11-06T02:44:14.710Z,4.18
2022-11-06T02:46:46.832Z,4.10
2022-11-06T02:49:42.385Z,3.78
2022-11-06T02:52:14.308Z,3.60
2022-11-06T02:54:46.483Z,3.60
2022-11-06T02:57:15.731Z,4.13
2022-11-06T02:59:48.178Z,4.15
2022-11-06T03:02:22.106Z,3.28
2022-11-06T03:04:57.119Z,4.10
2022-11-06T03:07:29.010Z,5.20
2022-11-06T03:09:56.401Z,3.67
2022-11-06T03:12:30.324Z,2.97
2022-11-06T03:15:03.287Z,3.58
2022-11-06T03:17:51.667Z,2.72
2022-11-06T03:20:23.509Z,3.42
2022-11-06T03:23:10.885Z,2.78
2022-11-06T03:25:51.136Z,2.60
2022-11-06T03:29:04.023Z,3.17
2022-11-06T03:31:36.960Z,2.53
2022-11-06T03:34:07.383Z,2.33
2022-11-06T03:36:42.042Z,2.15
2022-11-06T03:39:15.749Z,2.30
2022-11-06T03:44:13.401Z,2.22
2022-11-06T03:46:47.956Z,3.53
2022-11-06T03:49:22.222Z,2.47
2022-11-06T03:52:04.519Z,2.67
2022-11-06T03:54:45.303Z,2.40
2022-11-06T03:57:18.482Z,2.88
2022-11-06T03:59:49.810Z,3.05
2022-11-06T04:02:19.238Z,3.08
2022-11-06T04:04:57.533Z,3.03
2022-11-06T04:07:30.197Z,3.30
2022-11-06T04:10:19.411Z,3.80
2022-11-06T04:13:07.158Z,3.30
2022-11-06T04:15:40.993Z,4.20
2022-11-06T04:18:17.052Z,3.95
2022-11-06T04:21:12.257Z,4.68
2022-11-06T04:24:12.547Z,4.47
2022-11-06T04:26:48.234Z,4.18
2022-11-06T04:29:34.235Z,4.82
2022-11-06T04:32:19.957Z,5.40
2022-11-06T04:34:58.361Z,4.82
2022-11-06T04:37:50.416Z,4.90
2022-11-06T04:40:25.431Z,4.88
2022-11-06T04:43:12.021Z,5.18
2022-11-06T04:45:46.769Z,5.65
2022-11-06T04:48:14.241Z,6.55
2022-11-06T04:50:47.949Z,6.30
2022-11-06T04:53:17.111Z,6.00
2022-11-06T04:55:56.149Z,6.30
2022-11-06T04:58:22.703Z,5.40
2022-11-06T05:00:51.043Z,5.63
2022-11-06T05:03:18.740Z,5.32
2022-11-06T05:05:45.521Z,4.93
2022-11-06T05:08:17.446Z,5.18
2022-11-06T05:10:44.477Z,5.97
2022-11-06T05:13:13.727Z,5.18
2022-11-06T05:15:41.042Z,5.32
2022-11-06T05:18:08.181Z,5.43
2022-11-06T05:20:34.978Z,6.57
2022-11-06T05:23:01.658Z,5.45
2022-11-06T05:25:40.197Z,5.60
2022-11-06T05:28:08.105Z,5.43
2022-11-06T05:30:37.735Z,5.40
2022-11-06T05:33:04.667Z,5.72
2022-11-06T05:35:31.193Z,5.72
2022-11-06T05:38:02.406Z,4.97
2022-11-06T05:40:29.327Z,5.43
2022-11-06T05:42:55.836Z,4.82
2022-11-06T05:45:22.409Z,5.15
2022-11-06T05:47:48.906Z,5.60
2022-11-06T05:50:15.481Z,4.38
2022-11-06T05:52:41.998Z,4.72
2022-11-06T05:55:14.148Z,5.22
2022-11-06T05:57:41.505Z,4.25
2022-11-06T06:00:08.982Z,4.40
2022-11-06T06:02:36.909Z,3.85
2022-11-06T06:05:05.018Z,5.85
2022-11-06T06:07:32.223Z,4.65
2022-11-06T06:09:58.758Z,4.95
2022-11-06T06:12:26.443Z,4.15
2022-11-06T06:14:53.972Z,4.28
2022-11-06T06:17:21.001Z,5.20
2022-11-06T06:19:48.463Z,4.95
2022-11-06T06:22:15.163Z,4.28
2022-11-06T06:24:41.828Z,3.95
2022-11-06T06:27:08.425Z,3.05
2022-11-06T06:29:35.054Z,4.30
2022-11-06T06:32:01.977Z,4.88
2022-11-06T06:34:28.525Z,4.13
2022-11-06T06:36:55.078Z,4.53
2022-11-06T06:39:21.740Z,4.00
2022-11-06T06:41:48.735Z,4.75
2022-11-06T06:44:16.229Z,4.28
2022-11-06T06:46:42.796Z,4.43
2022-11-06T06:49:09.601Z,5.22
2022-11-06T06:51:36.186Z,3.67
2022-11-06T06:54:02.856Z,7.55
2022-11-06T06:56:29.394Z,4.45
2022-11-06T06:58:55.965Z,4.60
2022-11-06T07:01:22.680Z,4.47
2022-11-06T07:03:49.483Z,3.40
2022-11-06T07:06:19.434Z,4.32
2022-11-06T07:08:46.364Z,3.97
2022-11-06T07:11:12.956Z,3.88
2022-11-06T07:13:39.544Z,4.38
2022-11-06T07:16:08.598Z,3.70
2022-11-06T07:18:36.272Z,3.65
2022-11-06T07:21:11.629Z,3.72
2022-11-06T07:23:39.012Z,3.13
2022-11-06T07:26:05.965Z,3.22
2022-11-06T07:28:33.300Z,3.75
2022-11-06T07:31:01.373Z,2.92
2022-11-06T07:33:28.105Z,3.20
2022-11-06T07:35:54.729Z,3.22
2022-11-06T07:38:21.317Z,3.15
2022-11-06T07:40:47.883Z,3.00
2022-11-06T07:43:14.631Z,3.17
2022-11-06T07:45:42.664Z,3.03
2022-11-06T07:48:09.234Z,2.97
2022-11-06T07:50:35.764Z,3.33
2022-11-06T07:53:03.476Z,3.95
2022-11-06T07:55:30.412Z,3.10
2022-11-06T07:57:58.640Z,2.30
2022-11-06T08:00:25.198Z,2.70
2022-11-06T08:02:52.971Z,2.30
2022-11-06T08:05:19.902Z,2.50
2022-11-06T08:07:46.689Z,2.72
2022-11-06T08:10:13.199Z,2.30
2022-11-06T08:12:39.717Z,2.90
2022-11-06T08:15:06.731Z,2.95
2022-11-06T08:17:33.310Z,2.47
2022-11-06T08:19:59.888Z,2.88
2022-11-06T08:22:26.482Z,2.35
2022-11-06T08:24:53.018Z,2.45
2022-11-06T08:27:19.535Z,2.05
2022-11-06T08:29:46.042Z,2.03
2022-11-06T08:32:12.592Z,2.10
2022-11-06T08:34:39.110Z,2.13
2022-11-06T08:37:05.606Z,2.08
2022-11-06T08:39:32.260Z,2.08
2022-11-06T08:41:58.768Z,2.20
2022-11-06T08:44:25.405Z,1.67
2022-11-06T08:46:52.507Z,1.77
2022-11-06T08:49:19.759Z,1.95
2022-11-06T08:51:46.387Z,1.88
2022-11-06T08:54:13.168Z,1.50
2022-11-06T08:56:39.782Z,2.00
2022-11-06T08:59:06.439Z,1.70
2022-11-06T09:01:33.102Z,1.60
2022-11-06T09:03:59.709Z,2.15
2022-11-06T09:06:26.368Z,1.92
2022-11-06T09:08:54.266Z,2.90
2022-11-06T09:11:21.089Z,1.90
2022-11-06T09:13:47.660Z,1.88
2022-11-06T09:16:15.970Z,1.45
2022-11-06T09:18:45.822Z,1.50
2022-11-06T09:21:12.396Z,1.48
2022-11-06T09:23:38.981Z,1.52
2022-11-06T09:26:05.504Z,1.50
2022-11-06T09:28:32.017Z,1.60
2022-11-06T09:30:58.540Z,1.98
2022-11-06T09:33:25.058Z,1.50
2022-11-06T09:35:51.611Z,2.28
2022-11-06T09:38:19.129Z,1.30
2022-11-06T09:40:48.411Z,2.13
2022-11-06T09:43:50.062Z,2.00
2022-11-06T09:46:24.647Z,1.70
2022-11-06T09:48:58.795Z,2.45
2022-11-06T09:51:46.405Z,2.72
2022-11-06T09:54:20.235Z,2.60
2022-11-06T09:56:50.204Z,2.63
2022-11-06T09:59:20.779Z,2.28
2022-11-06T10:01:52.575Z,3.10
2022-11-06T10:04:34.478Z,2.45
2022-11-06T10:07:00.971Z,3.20
2022-11-06T10:09:28.454Z,2.38
2022-11-06T10:12:15.381Z,2.75
2022-11-06T10:15:08.766Z,2.42
2022-11-06T10:17:50.542Z,2.70
2022-11-06T10:20:26.775Z,2.85
2022-11-06T10:23:25.118Z,2.78
2022-11-06T10:25:51.654Z,2.35
2022-11-06T10:28:36.540Z,2.50
2022-11-06T10:31:23.257Z,2.40
2022-11-06T10:34:08.378Z,2.50
2022-11-06T10:36:50.276Z,2.42
2022-11-06T10:39:28.713Z,2.47
2022-11-06T10:42:00.552Z,2.75
2022-11-06T10:44:46.078Z,1.98
2022-11-06T10:47:21.361Z,2.25
2022-11-06T10:49:50.755Z,2.38
2022-11-06T10:52:35.197Z,1.75
2022-11-06T10:55:20.078Z,2.72
2022-11-06T10:57:48.859Z,2.30
2022-11-06T11:00:16.544Z,2.72
2022-11-06T11:03:35.692Z,1.90
2022-11-06T11:06:04.981Z,2.20
2022-11-06T11:08:31.471Z,1.80
2022-11-06T11:11:15.476Z,2.13
2022-11-06T11:13:48.242Z,2.10
2022-11-06T11:16:25.893Z,2.50
2022-11-06T11:18:52.916Z,2.08
2022-11-06T11:21:19.388Z,1.70
2022-11-06T11:24:12.080Z,1.90
2022-11-06T11:26:47.947Z,2.00
2022-11-06T11:29:29.156Z,1.75
2022-11-06T11:32:05.261Z,2.05
2022-11-06T11:34:35.725Z,1.83
2022-11-06T11:37:05.685Z,2.38
2022-11-06T11:39:35.499Z,1.50
2022-11-06T11:42:25.750Z,1.73
2022-11-06T11:45:10.380Z,2.33
2022-11-06T11:47:42.236Z,2.05
2022-11-06T11:50:31.954Z,1.60
2022-11-06T11:53:27.845Z,1.58
2022-11-06T11:55:54.416Z,2.00
2022-11-06T11:58:28.015Z,2.03
2022-11-06T12:03:22.648Z,1.83
2022-11-06T12:05:49.268Z,2.00
2022-11-06T12:08:25.246Z,2.40
2022-11-06T12:10:51.837Z,2.00
2022-11-06T12:13:22.801Z,2.08
2022-11-06T12:16:10.526Z,1.75
2022-11-06T12:18:48.231Z,1.65
2022-11-06T12:21:22.144Z,1.50
2022-11-06T12:23:55.724Z,2.00
2022-11-06T12:29:03.661Z,1.75
2022-11-06T12:31:46.525Z,1.95
2022-11-06T12:34:45.162Z,1.95
2022-11-06T12:37:39.751Z,2.00
2022-11-06T12:40:25.565Z,1.80
2022-11-06T12:43:23.459Z,1.50
2022-11-06T12:46:11.911Z,1.08
2022-11-06T12:48:56.657Z,1.20
2022-11-06T12:51:25.905Z,2.03
2022-11-06T12:54:16.987Z,1.27
2022-11-06T12:56:49.523Z,1.40
2022-11-06T12:59:43.491Z,1.02
2022-11-06T13:02:28.039Z,1.30
2022-11-06T13:05:03.017Z,1.60
2022-11-06T13:07:51.275Z,1.60
2022-11-06T13:10:32.676Z,1.25
2022-11-06T13:13:28.189Z,1.20
2022-11-06T13:16:07.936Z,1.27
2022-11-06T13:18:41.888Z,1.55
2022-11-06T13:21:52.750Z,1.25
2022-11-06T13:24:37.791Z,1.30
2022-11-06T13:27:31.733Z,1.70
2022-11-06T13:30:04.465Z,1.10
2022-11-06T13:32:34.973Z,1.30
2022-11-06T13:35:03.279Z,1.55
2022-11-06T13:37:41.869Z,1.23
2022-11-06T13:40:14.270Z,1.08
2022-11-06T13:42:48.245Z,1.00
2022-11-06T13:45:16.602Z,1.50
2022-11-06T13:48:15.378Z,1.10
2022-11-06T13:51:09.855Z,1.00
2022-11-06T13:54:00.261Z,1.17
2022-11-06T13:56:57.710Z,1.00
2022-11-06T13:59:59.578Z,0.90
2022-11-06T14:03:03.882Z,1.40
2022-11-06T14:05:51.041Z,0.85
2022-11-06T14:08:26.127Z,1.00
2022-11-06T14:11:04.925Z,1.10
2022-11-06T14:13:35.302Z,0.90
2022-11-06T14:16:25.424Z,1.13
2022-11-06T14:19:21.080Z,1.10
2022-11-06T14:21:50.594Z,1.30
2022-11-06T14:24:20.049Z,0.70
2022-11-06T14:26:48.949Z,0.90
2022-11-06T14:29:27.819Z,1.13
2022-11-06T14:32:13.111Z,1.25
2022-11-06T14:34:42.316Z,1.00
2022-11-06T14:37:18.059Z,1.70
2022-11-06T14:39:59.983Z,1.10
2022-11-06T14:42:34.477Z,1.23
2022-11-06T14:45:08.414Z,0.95
2022-11-06T14:48:01.968Z,1.10
2022-11-06T14:50:36.019Z,0.90
2022-11-06T14:53:16.267Z,0.90
2022-11-06T14:55:58.968Z,0.93
2022-11-06T14:58:34.227Z,0.88
2022-11-06T15:01:09.738Z,0.65
2022-11-06T15:03:52.731Z,1.75
2022-11-06T15:06:19.205Z,1.10
2022-11-06T15:08:45.829Z,1.63
2022-11-06T15:11:30.776Z,1.23
2022-11-06T15:14:04.572Z,1.60
2022-11-06T15:16:50.767Z,1.10
2022-11-06T15:19:28.113Z,1.52
2022-11-06T15:22:14.070Z,1.55
2022-11-06T15:24:52.208Z,1.48
2022-11-06T15:27:22.069Z,1.50
2022-11-06T15:29:52.646Z,1.60
2022-11-06T15:32:23.016Z,1.52
2022-11-06T15:34:54.448Z,1.30
2022-11-06T15:37:24.995Z,1.70
2022-11-06T15:40:00.339Z,1.65
2022-11-06T15:42:47.061Z,1.45
2022-11-06T15:45:16.296Z,2.83
2022-11-06T15:48:01.286Z,6.95
2022-11-06T15:50:32.782Z,10.25
2022-11-06T15:53:15.123Z,4.00
2022-11-06T15:55:44.630Z,1.80
2022-11-06T15:58:29.532Z,1.73
2022-11-06T16:00:58.503Z,1.60
2022-11-06T16:03:27.723Z,1.55
2022-11-06T16:05:56.575Z,1.63
2022-11-06T16:08:26.184Z,1.40
2022-11-06T16:10:54.768Z,1.38
2022-11-06T16:13:24.262Z,1.70
2022-11-06T16:16:01.769Z,1.77
2022-11-06T16:18:39.422Z,1.63
2022-11-06T16:21:11.466Z,1.60
2022-11-06T16:23:41.508Z,1.70
2022-11-06T16:26:15.258Z,1.30
2022-11-06T16:31:19.136Z,1.90
2022-11-06T16:33:59.782Z,1.65
2022-11-06T16:36:29.582Z,1.23
2022-11-06T16:39:48.092Z,5.47
2022-11-06T16:42:36.168Z,3.70
2022-11-06T16:45:08.629Z,2.80
2022-11-06T16:47:35.982Z,3.63
2022-11-06T16:50:05.925Z,7.75
2022-11-06T16:52:40.235Z,4.68
2022-11-06T16:55:23.858Z,2.08
2022-11-06T16:57:59.506Z,2.28
2022-11-06T17:00:29.343Z,2.10
2022-11-06T17:03:03.047Z,1.60
2022-11-06T17:08:32.421Z,1.50
2022-11-06T17:11:14.392Z,1.70
2022-11-06T17:13:44.406Z,2.08
2022-11-06T17:16:16.842Z,1.65
2022-11-06T17:18:43.423Z,2.05
2022-11-06T17:21:15.721Z,1.90
2022-11-06T17:23:43.237Z,2.08
2022-11-06T17:26:28.293Z,1.85
2022-11-06T17:28:56.216Z,2.40
2022-11-06T17:31:23.963Z,2.20
2022-11-06T17:33:50.893Z,2.25
2022-11-06T17:36:25.119Z,2.10
2022-11-06T17:38:52.773Z,2.10
2022-11-06T17:41:31.263Z,2.25
2022-11-06T17:44:07.569Z,2.33
2022-11-06T17:46:46.383Z,2.78
2022-11-06T17:49:17.525Z,2.20
2022-11-06T17:51:52.392Z,2.20
2022-11-06T17:54:25.419Z,2.10
2022-11-06T17:56:53.710Z,2.80
2022-11-06T17:59:20.941Z,2.20
2022-11-06T18:01:50.438Z,2.55
2022-11-06T18:04:18.543Z,1.77
2022-11-06T18:06:49.497Z,2.42
2022-11-06T18:09:16.226Z,2.15
2022-11-06T18:11:43.349Z,2.92
2022-11-06T18:14:10.681Z,2.40
2022-11-06T18:16:43.567Z,2.25
2022-11-06T18:19:12.282Z,2.67
2022-11-06T18:21:38.793Z,3.33
2022-11-06T18:24:05.801Z,3.03
2022-11-06T18:26:32.386Z,2.80
2022-11-06T18:28:59.000Z,3.13
2022-11-06T18:31:25.616Z,2.90
2022-11-06T18:33:52.182Z,3.47
2022-11-06T18:36:18.896Z,3.78
2022-11-06T18:38:45.458Z,3.97
2022-11-06T18:41:17.770Z,3.78
2022-11-06T18:43:44.878Z,2.78
2022-11-06T18:46:13.712Z,3.58
2022-11-06T18:48:40.502Z,2.83
2022-11-06T18:51:10.308Z,3.10
2022-11-06T18:53:38.448Z,3.10
2022-11-06T18:56:08.407Z,3.28
2022-11-06T18:58:35.291Z,3.00
2022-11-06T19:01:06.944Z,2.83
2022-11-06T19:03:34.517Z,3.38
2022-11-06T19:06:01.281Z,4.25
2022-11-06T19:08:27.926Z,3.40
2022-11-06T19:10:54.531Z,3.38
2022-11-06T19:13:21.120Z,4.03
2022-11-06T19:15:48.171Z,2.58
2022-11-06T19:18:15.534Z,2.75
2022-11-06T19:20:42.911Z,2.35
2022-11-06T19:23:13.758Z,2.38
2022-11-06T19:25:43.543Z,2.47
2022-11-06T19:28:10.439Z,2.55
2022-11-06T19:30:37.333Z,3.05
2022-11-06T19:33:04.424Z,2.15
2022-11-06T19:35:31.917Z,2.50
2022-11-06T19:37:58.829Z,2.30
2022-11-06T19:40:25.403Z,2.03
2022-11-06T19:42:51.939Z,3.10
2022-11-06T19:45:18.560Z,2.60
2022-11-06T19:47:45.145Z,3.60
2022-11-06T19:50:11.729Z,3.10
2022-11-06T19:52:41.171Z,2.47
2022-11-06T19:55:25.732Z,3.30
2022-11-06T19:57:54.825Z,2.55
2022-11-06T20:00:21.333Z,2.50
2022-11-06T20:02:51.049Z,2.80
2022-11-06T20:05:17.784Z,3.38
2022-11-06T20:07:44.290Z,3.05
2022-11-06T20:10:11.302Z,3.03
2022-11-06T20:12:37.876Z,3.00
2022-11-06T20:15:04.949Z,2.33
2022-11-06T20:17:31.505Z,3.15
2022-11-06T20:19:58.437Z,2.50
2022-11-06T20:22:25.430Z,2.22
2022-11-06T20:24:52.143Z,1.83
2022-11-06T20:27:18.825Z,2.55
2022-11-06T20:29:45.488Z,2.25
2022-11-06T20:32:17.671Z,2.55
2022-11-06T20:34:45.727Z,2.45
2022-11-06T20:37:12.548Z,2.97
2022-11-06T20:39:39.130Z,2.63
2022-11-06T20:42:05.667Z,2.08
2022-11-06T20:44:32.307Z,2.13
2022-11-06T20:46:59.014Z,2.40
2022-11-06T20:49:25.570Z,2.42
2022-11-06T20:52:12.091Z,2.78
2022-11-06T20:54:43.734Z,2.00
2022-11-06T20:57:13.234Z,2.17
2022-11-06T20:59:39.772Z,2.00
2022-11-06T21:02:06.561Z,2.58
2022-11-06T21:04:33.228Z,2.70
2022-11-06T21:06:59.762Z,2.67
2022-11-06T21:09:26.327Z,2.10
2022-11-06T21:11:52.904Z,2.50
2022-11-06T21:14:19.563Z,1.73
2022-11-06T21:16:46.187Z,2.10
2022-11-06T21:19:12.837Z,1.83
2022-11-06T21:21:39.640Z,2.20
2022-11-06T21:24:06.973Z,2.00
2022-11-06T21:26:36.817Z,1.63
2022-11-06T21:29:06.138Z,2.15
2022-11-06T21:31:33.136Z,1.27
2022-11-06T21:34:01.596Z,1.85
2022-11-06T21:36:31.213Z,2.00
2022-11-06T21:39:00.389Z,1.33
2022-11-06T21:41:29.486Z,3.00
2022-11-06T21:43:56.813Z,2.15
2022-11-06T21:46:23.604Z,1.70
2022-11-06T21:48:50.827Z,1.85
2022-11-06T21:51:22.947Z,2.03
2022-11-06T21:54:09.126Z,1.60
2022-11-06T21:56:36.832Z,1.70
2022-11-06T21:59:05.301Z,2.00
2022-11-06T22:01:32.409Z,1.50
2022-11-06T22:03:59.708Z,2.00
2022-11-06T22:06:27.742Z,2.10
2022-11-06T22:08:55.847Z,2.95
2022-11-06T22:11:28.311Z,2.08
2022-11-06T22:13:57.334Z,2.15
2022-11-06T22:16:27.325Z,2.13
2022-11-06T22:18:54.165Z,2.38
2022-11-06T22:21:23.308Z,3.35
2022-11-06T22:23:50.528Z,1.83
2022-11-06T22:26:19.195Z,2.10
2022-11-06T22:28:46.371Z,1.70
2022-11-06T22:31:13.049Z,2.20
2022-11-06T22:33:39.929Z,1.73
2022-11-06T22:36:12.818Z,2.30
2022-11-06T22:38:41.478Z,2.30
2022-11-06T22:41:15.543Z,1.70
2022-11-06T22:43:42.923Z,2.08
2022-11-06T22:46:13.162Z,2.17
2022-11-06T22:48:40.185Z,2.33
2022-11-06T22:51:16.067Z,1.42
2022-11-06T22:53:42.715Z,1.92
2022-11-06T22:56:09.779Z,1.50
2022-11-06T22:58:36.467Z,1.42
2022-11-06T23:01:03.235Z,1.75
2022-11-06T23:03:30.927Z,1.95
2022-11-06T23:05:58.330Z,1.33
2022-11-06T23:08:26.444Z,1.70
2022-11-06T23:10:54.777Z,1.73
2022-11-06T23:13:21.863Z,1.77
2022-11-06T23:15:48.950Z,1.50
2022-11-06T23:18:15.734Z,1.88
2022-11-06T23:20:42.469Z,1.42
2022-11-06T23:23:09.295Z,1.40
2022-11-06T23:25:36.041Z,1.52
2022-11-06T23:28:02.954Z,2.42
2022-11-06T23:30:32.335Z,1.88
2022-11-06T23:32:59.131Z,2.47
2022-11-06T23:35:31.937Z,2.15
2022-11-06T23:37:59.188Z,2.03
2022-11-06T23:40:25.972Z,2.28
2022-11-06T23:42:54.652Z,2.75
2022-11-06T23:45:39.861Z,1.77
2022-11-06T23:48:13.250Z,1.80
2022-11-06T23:50:40.496Z,1.80
2022-11-06T23:53:07.630Z,1.90
2022-11-06T23:55:34.234Z,1.75
2022-11-06T23:58:00.921Z,1.60
